sensor_id;sensor_type;location;lat;lon;timestamp;noise_LAeq;noise_LA_min;noise_LA_max;noise_LA01;noise_LA95
58303;Laerm;44109;52.398;7.024;2023-05-10T00:00:41;75.15;49.91;103.16;;
58303;Laerm;44109;52.398;7.024;2023-05-10T00:03:09;74.06;49.30;100.52;;
58303;Laerm;44109;52.398;7.024;2023-05-10T00:05:37;74.83;50.62;102.14;;
58303;Laerm;44109;52.398;7.024;2023-05-10T00:08:04;73.55;52.12;101.07;;
58303;Laerm;44109;52.398;7.024;2023-05-10T00:10:32;73.93;48.28;101.60;;
58303;Laerm;44109;52.398;7.024;2023-05-10T00:13:00;71.39;46.72;102.22;;
58303;Laerm;44109;52.398;7.024;2023-05-10T00:15:29;70.17;46.26;101.27;;
58303;Laerm;44109;52.398;7.024;2023-05-10T00:17:57;72.06;46.13;100.99;;
58303;Laerm;44109;52.398;7.024;2023-05-10T00:20:24;71.77;47.89;100.57;;
58303;Laerm;44109;52.398;7.024;2023-05-10T00:22:52;68.87;44.79;96.34;;
58303;Laerm;44109;52.398;7.024;2023-05-10T00:25:20;62.94;41.95;97.98;;
58303;Laerm;44109;52.398;7.024;2023-05-10T00:27:48;62.26;42.31;96.95;;
58303;Laerm;44109;52.398;7.024;2023-05-10T00:30:16;64.26;41.19;97.29;;
58303;Laerm;44109;52.398;7.024;2023-05-10T00:32:45;65.94;39.79;99.36;;
58303;Laerm;44109;52.398;7.024;2023-05-10T00:35:14;56.82;39.99;85.56;;
58303;Laerm;44109;52.398;7.024;2023-05-10T00:37:41;56.15;39.17;86.53;;
58303;Laerm;44109;52.398;7.024;2023-05-10T00:40:10;56.25;39.92;84.30;;
58303;Laerm;44109;52.398;7.024;2023-05-10T00:42:38;62.35;39.75;97.75;;
58303;Laerm;44109;52.398;7.024;2023-05-10T00:45:07;62.14;39.07;97.77;;
58303;Laerm;44109;52.398;7.024;2023-05-10T00:47:35;55.45;39.90;79.35;;
58303;Laerm;44109;52.398;7.024;2023-05-10T00:50:06;66.31;39.99;102.26;;
58303;Laerm;44109;52.398;7.024;2023-05-10T00:52:34;62.59;39.67;97.86;;
58303;Laerm;44109;52.398;7.024;2023-05-10T00:55:02;65.45;39.61;101.07;;
58303;Laerm;44109;52.398;7.024;2023-05-10T00:57:30;67.71;39.40;101.79;;
58303;Laerm;44109;52.398;7.024;2023-05-10T00:59:59;56.60;39.83;82.66;;
58303;Laerm;44109;52.398;7.024;2023-05-10T01:02:27;55.75;39.82;85.36;;
58303;Laerm;44109;52.398;7.024;2023-05-10T01:04:55;63.49;39.54;96.83;;
58303;Laerm;44109;52.398;7.024;2023-05-10T01:07:24;62.51;39.36;98.13;;
58303;Laerm;44109;52.398;7.024;2023-05-10T01:09:51;62.33;39.55;96.36;;
58303;Laerm;44109;52.398;7.024;2023-05-10T01:12:19;65.67;38.69;101.05;;
58303;Laerm;44109;52.398;7.024;2023-05-10T01:14:48;65.62;39.37;99.53;;
58303;Laerm;44109;52.398;7.024;2023-05-10T01:17:16;57.16;38.56;89.98;;
58303;Laerm;44109;52.398;7.024;2023-05-10T01:19:44;63.00;38.13;98.56;;
58303;Laerm;44109;52.398;7.024;2023-05-10T01:22:41;56.35;38.10;90.31;;
58303;Laerm;44109;52.398;7.024;2023-05-10T01:25:43;65.85;38.20;98.31;;
58303;Laerm;44109;52.398;7.024;2023-05-10T01:28:54;66.61;37.18;99.38;;
58303;Laerm;44109;52.398;7.024;2023-05-10T01:31:50;53.54;38.07;77.09;;
58303;Laerm;44109;52.398;7.024;2023-05-10T01:34:25;66.56;38.45;98.51;;
58303;Laerm;44109;52.398;7.024;2023-05-10T01:37:04;62.57;39.12;97.99;;
58303;Laerm;44109;52.398;7.024;2023-05-10T01:39:45;68.32;39.66;101.91;;
58303;Laerm;44109;52.398;7.024;2023-05-10T01:42:20;66.92;39.62;101.09;;
58303;Laerm;44109;52.398;7.024;2023-05-10T01:44:58;67.33;38.70;100.92;;
58303;Laerm;44109;52.398;7.024;2023-05-10T01:47:37;65.19;39.14;98.99;;
58303;Laerm;44109;52.398;7.024;2023-05-10T01:50:12;68.66;39.05;102.32;;
58303;Laerm;44109;52.398;7.024;2023-05-10T01:52:47;57.18;38.93;85.13;;
58303;Laerm;44109;52.398;7.024;2023-05-10T01:55:21;68.04;38.71;102.93;;
58303;Laerm;44109;52.398;7.024;2023-05-10T01:57:58;62.87;40.64;96.13;;
58303;Laerm;44109;52.398;7.024;2023-05-10T02:00:30;65.09;39.92;100.89;;
58303;Laerm;44109;52.398;7.024;2023-05-10T02:03:04;56.27;38.83;85.21;;
58303;Laerm;44109;52.398;7.024;2023-05-10T02:05:33;65.62;38.09;100.25;;
58303;Laerm;44109;52.398;7.024;2023-05-10T02:08:06;53.53;37.58;83.96;;
58303;Laerm;44109;52.398;7.024;2023-05-10T02:10:35;63.44;37.27;99.38;;
58303;Laerm;44109;52.398;7.024;2023-05-10T02:13:05;64.73;36.64;100.82;;
58303;Laerm;44109;52.398;7.024;2023-05-10T02:15:35;64.84;36.38;100.95;;
58303;Laerm;44109;52.398;7.024;2023-05-10T02:18:07;51.50;35.95;76.08;;
58303;Laerm;44109;52.398;7.024;2023-05-10T02:20:38;52.01;35.87;72.61;;
58303;Laerm;44109;52.398;7.024;2023-05-10T02:23:08;62.42;36.68;97.81;;
58303;Laerm;44109;52.398;7.024;2023-05-10T02:25:38;64.58;37.51;98.34;;
58303;Laerm;44109;52.398;7.024;2023-05-10T02:28:08;60.27;38.90;94.31;;
58303;Laerm;44109;52.398;7.024;2023-05-10T02:30:38;63.48;40.07;98.39;;
58303;Laerm;44109;52.398;7.024;2023-05-10T02:33:08;66.06;40.52;99.76;;
58303;Laerm;44109;52.398;7.024;2023-05-10T02:35:37;62.29;40.79;93.37;;
58303;Laerm;44109;52.398;7.024;2023-05-10T02:38:07;64.86;41.40;97.06;;
58303;Laerm;44109;52.398;7.024;2023-05-10T02:40:37;55.38;40.52;79.69;;
58303;Laerm;44109;52.398;7.024;2023-05-10T02:43:09;64.02;40.14;99.11;;
58303;Laerm;44109;52.398;7.024;2023-05-10T02:45:41;56.99;39.96;88.20;;
58303;Laerm;44109;52.398;7.024;2023-05-10T02:48:11;64.53;38.74;99.81;;
58303;Laerm;44109;52.398;7.024;2023-05-10T02:50:44;63.43;38.84;96.51;;
58303;Laerm;44109;52.398;7.024;2023-05-10T02:53:21;52.74;37.64;77.03;;
58303;Laerm;44109;52.398;7.024;2023-05-10T02:55:52;66.24;38.87;101.67;;
58303;Laerm;44109;52.398;7.024;2023-05-10T02:58:24;59.44;40.57;92.61;;
58303;Laerm;44109;52.398;7.024;2023-05-10T03:00:52;66.84;41.17;102.32;;
58303;Laerm;44109;52.398;7.024;2023-05-10T03:03:21;69.18;42.37;101.65;;
58303;Laerm;44109;52.398;7.024;2023-05-10T03:05:49;61.81;43.28;87.09;;
58303;Laerm;44109;52.398;7.024;2023-05-10T03:08:17;68.23;43.37;99.44;;
58303;Laerm;44109;52.398;7.024;2023-05-10T03:11:12;68.11;42.79;100.92;;
58303;Laerm;44109;52.398;7.024;2023-05-10T03:13:56;65.71;42.46;101.41;;
58303;Laerm;44109;52.398;7.024;2023-05-10T03:16:35;62.03;41.59;96.57;;
58303;Laerm;44109;52.398;7.024;2023-05-10T03:19:17;66.04;41.75;100.03;;
58303;Laerm;44109;52.398;7.024;2023-05-10T03:21:51;64.40;40.73;98.00;;
58303;Laerm;44109;52.398;7.024;2023-05-10T03:24:23;62.57;42.36;94.01;;
58303;Laerm;44109;52.398;7.024;2023-05-10T03:26:59;66.42;40.59;99.63;;
58303;Laerm;44109;52.398;7.024;2023-05-10T03:29:30;60.12;40.27;89.13;;
58303;Laerm;44109;52.398;7.024;2023-05-10T03:31:58;63.92;39.75;98.36;;
58303;Laerm;44109;52.398;7.024;2023-05-10T03:34:30;56.75;38.49;72.66;;
58303;Laerm;44109;52.398;7.024;2023-05-10T03:36:58;58.83;37.55;85.57;;
58303;Laerm;44109;52.398;7.024;2023-05-10T03:39:26;55.78;37.13;84.56;;
58303;Laerm;44109;52.398;7.024;2023-05-10T03:41:53;63.74;36.66;99.25;;
58303;Laerm;44109;52.398;7.024;2023-05-10T03:44:21;64.77;35.23;97.68;;
58303;Laerm;44109;52.398;7.024;2023-05-10T03:46:48;53.07;35.33;68.12;;
58303;Laerm;44109;52.398;7.024;2023-05-10T03:49:16;52.76;36.30;69.73;;
58303;Laerm;44109;52.398;7.024;2023-05-10T03:51:45;55.19;36.04;70.20;;
58303;Laerm;44109;52.398;7.024;2023-05-10T03:54:13;62.54;36.63;97.76;;
58303;Laerm;44109;52.398;7.024;2023-05-10T03:56:41;68.62;36.94;102.47;;
58303;Laerm;44109;52.398;7.024;2023-05-10T03:59:08;52.93;34.78;67.16;;
58303;Laerm;44109;52.398;7.024;2023-05-10T04:01:36;55.81;35.32;69.27;;
58303;Laerm;44109;52.398;7.024;2023-05-10T04:04:03;56.44;35.48;76.28;;
58303;Laerm;44109;52.398;7.024;2023-05-10T04:06:31;55.52;35.94;74.73;;
58303;Laerm;44109;52.398;7.024;2023-05-10T04:09:00;53.35;35.18;67.01;;
58303;Laerm;44109;52.398;7.024;2023-05-10T04:11:30;67.04;35.32;103.24;;
58303;Laerm;44109;52.398;7.024;2023-05-10T04:13:58;62.98;36.36;97.31;;
58303;Laerm;44109;52.398;7.024;2023-05-10T04:16:25;54.18;35.90;81.89;;
58303;Laerm;44109;52.398;7.024;2023-05-10T04:18:53;52.65;34.79;70.71;;
58303;Laerm;44109;52.398;7.024;2023-05-10T04:21:20;53.03;35.16;66.96;;
58303;Laerm;44109;52.398;7.024;2023-05-10T04:23:48;53.74;36.31;67.84;;
58303;Laerm;44109;52.398;7.024;2023-05-10T04:26:17;59.09;37.40;93.51;;
58303;Laerm;44109;52.398;7.024;2023-05-10T04:28:45;49.78;35.99;65.42;;
58303;Laerm;44109;52.398;7.024;2023-05-10T04:31:12;49.89;36.82;67.27;;
58303;Laerm;44109;52.398;7.024;2023-05-10T04:33:40;53.86;36.61;72.86;;
58303;Laerm;44109;52.398;7.024;2023-05-10T04:36:08;49.56;37.75;63.63;;
58303;Laerm;44109;52.398;7.024;2023-05-10T04:38:36;53.27;35.07;65.85;;
58303;Laerm;44109;52.398;7.024;2023-05-10T04:41:05;55.02;34.80;67.84;;
58303;Laerm;44109;52.398;7.024;2023-05-10T04:43:34;54.99;35.27;67.77;;
58303;Laerm;44109;52.398;7.024;2023-05-10T04:46:03;52.60;36.81;69.52;;
58303;Laerm;44109;52.398;7.024;2023-05-10T04:48:31;51.72;35.30;68.65;;
58303;Laerm;44109;52.398;7.024;2023-05-10T04:50:59;51.63;37.23;67.70;;
58303;Laerm;44109;52.398;7.024;2023-05-10T04:53:26;50.24;37.56;67.22;;
58303;Laerm;44109;52.398;7.024;2023-05-10T04:55:54;52.89;37.98;66.79;;
58303;Laerm;44109;52.398;7.024;2023-05-10T04:58:22;49.57;36.14;67.79;;
58303;Laerm;44109;52.398;7.024;2023-05-10T05:00:51;49.47;35.06;64.28;;
58303;Laerm;44109;52.398;7.024;2023-05-10T05:03:18;58.82;38.05;82.94;;
58303;Laerm;44109;52.398;7.024;2023-05-10T05:05:46;64.77;36.03;85.46;;
58303;Laerm;44109;52.398;7.024;2023-05-10T05:08:13;64.82;37.13;87.60;;
58303;Laerm;44109;52.398;7.024;2023-05-10T05:10:41;60.77;36.13;87.97;;
58303;Laerm;44109;52.398;7.024;2023-05-10T05:13:09;53.87;35.96;79.75;;
58303;Laerm;44109;52.398;7.024;2023-05-10T05:15:36;60.18;36.89;86.97;;
58303;Laerm;44109;52.398;7.024;2023-05-10T05:18:05;52.05;36.91;63.06;;
58303;Laerm;44109;52.398;7.024;2023-05-10T05:20:33;51.13;35.39;67.34;;
58303;Laerm;44109;52.398;7.024;2023-05-10T05:23:01;50.63;37.79;61.27;;
58303;Laerm;44109;52.398;7.024;2023-05-10T05:25:28;50.78;36.65;65.07;;
58303;Laerm;44109;52.398;7.024;2023-05-10T05:27:56;49.80;37.43;62.75;;
58303;Laerm;44109;52.398;7.024;2023-05-10T05:30:24;49.49;36.36;61.15;;
58303;Laerm;44109;52.398;7.024;2023-05-10T05:32:51;49.04;36.36;59.12;;
58303;Laerm;44109;52.398;7.024;2023-05-10T05:35:20;49.69;37.49;68.37;;
58303;Laerm;44109;52.398;7.024;2023-05-10T05:37:48;51.72;37.74;65.06;;
58303;Laerm;44109;52.398;7.024;2023-05-10T05:40:15;50.37;35.76;65.64;;
58303;Laerm;44109;52.398;7.024;2023-05-10T05:42:43;52.10;37.21;69.89;;
58303;Laerm;44109;52.398;7.024;2023-05-10T05:45:11;58.68;37.26;83.81;;
58303;Laerm;44109;52.398;7.024;2023-05-10T05:47:40;50.52;37.96;66.02;;
58303;Laerm;44109;52.398;7.024;2023-05-10T05:50:09;49.12;36.78;68.73;;
58303;Laerm;44109;52.398;7.024;2023-05-10T05:52:38;49.02;36.25;60.32;;
58303;Laerm;44109;52.398;7.024;2023-05-10T05:55:06;51.64;36.98;63.23;;
58303;Laerm;44109;52.398;7.024;2023-05-10T05:57:34;49.67;36.60;62.47;;
58303;Laerm;44109;52.398;7.024;2023-05-10T06:00:03;50.75;36.72;67.17;;
58303;Laerm;44109;52.398;7.024;2023-05-10T06:02:31;53.71;38.52;71.00;;
58303;Laerm;44109;52.398;7.024;2023-05-10T06:04:58;52.44;36.44;70.76;;
58303;Laerm;44109;52.398;7.024;2023-05-10T06:07:26;51.03;36.42;64.62;;
58303;Laerm;44109;52.398;7.024;2023-05-10T06:09:55;51.38;40.44;67.20;;
58303;Laerm;44109;52.398;7.024;2023-05-10T06:12:23;53.28;40.09;66.47;;
58303;Laerm;44109;52.398;7.024;2023-05-10T06:14:50;53.21;36.06;70.21;;
58303;Laerm;44109;52.398;7.024;2023-05-10T06:17:18;53.91;37.89;66.30;;
58303;Laerm;44109;52.398;7.024;2023-05-10T06:19:45;58.44;38.10;86.52;;
58303;Laerm;44109;52.398;7.024;2023-05-10T06:22:13;61.01;37.41;85.19;;
58303;Laerm;44109;52.398;7.024;2023-05-10T06:24:41;55.54;38.84;77.15;;
58303;Laerm;44109;52.398;7.024;2023-05-10T06:27:11;52.19;39.62;64.33;;
58303;Laerm;44109;52.398;7.024;2023-05-10T06:29:38;50.24;40.63;60.59;;
58303;Laerm;44109;52.398;7.024;2023-05-10T06:32:06;50.29;39.23;67.93;;
58303;Laerm;44109;52.398;7.024;2023-05-10T06:34:34;50.47;38.12;61.03;;
58303;Laerm;44109;52.398;7.024;2023-05-10T06:37:01;51.40;37.73;63.79;;
58303;Laerm;44109;52.398;7.024;2023-05-10T06:39:29;62.53;38.82;87.01;;
58303;Laerm;44109;52.398;7.024;2023-05-10T06:41:57;65.73;39.41;86.89;;
58303;Laerm;44109;52.398;7.024;2023-05-10T06:44:26;56.32;40.33;72.74;;
58303;Laerm;44109;52.398;7.024;2023-05-10T06:46:54;61.21;38.44;82.32;;
58303;Laerm;44109;52.398;7.024;2023-05-10T06:49:22;53.50;36.88;69.52;;
58303;Laerm;44109;52.398;7.024;2023-05-10T06:51:49;54.06;36.63;70.98;;
58303;Laerm;44109;52.398;7.024;2023-05-10T06:54:18;53.45;37.27;67.86;;
58303;Laerm;44109;52.398;7.024;2023-05-10T06:56:45;51.86;37.65;66.12;;
58303;Laerm;44109;52.398;7.024;2023-05-10T06:59:13;49.94;36.45;63.57;;
58303;Laerm;44109;52.398;7.024;2023-05-10T07:01:42;50.84;37.68;66.04;;
58303;Laerm;44109;52.398;7.024;2023-05-10T07:04:10;50.82;37.04;61.08;;
58303;Laerm;44109;52.398;7.024;2023-05-10T07:06:38;51.96;37.65;66.22;;
58303;Laerm;44109;52.398;7.024;2023-05-10T07:09:05;54.24;38.64;68.61;;
58303;Laerm;44109;52.398;7.024;2023-05-10T07:11:33;53.87;38.31;71.28;;
58303;Laerm;44109;52.398;7.024;2023-05-10T07:14:01;54.55;39.32;68.28;;
58303;Laerm;44109;52.398;7.024;2023-05-10T07:16:29;55.79;37.53;79.20;;
58303;Laerm;44109;52.398;7.024;2023-05-10T07:18:58;51.35;37.97;65.96;;
58303;Laerm;44109;52.398;7.024;2023-05-10T07:21:25;50.43;37.92;63.63;;
58303;Laerm;44109;52.398;7.024;2023-05-10T07:23:54;51.27;37.71;67.67;;
58303;Laerm;44109;52.398;7.024;2023-05-10T07:26:22;51.07;38.27;65.69;;
58303;Laerm;44109;52.398;7.024;2023-05-10T07:28:50;51.30;37.48;61.70;;
58303;Laerm;44109;52.398;7.024;2023-05-10T07:31:18;49.79;36.47;59.28;;
58303;Laerm;44109;52.398;7.024;2023-05-10T07:33:45;50.27;35.68;64.57;;
58303;Laerm;44109;52.398;7.024;2023-05-10T07:36:14;50.43;37.71;62.93;;
58303;Laerm;44109;52.398;7.024;2023-05-10T07:38:42;51.49;37.99;66.18;;
58303;Laerm;44109;52.398;7.024;2023-05-10T07:41:11;51.11;37.09;64.09;;
58303;Laerm;44109;52.398;7.024;2023-05-10T07:43:39;56.12;37.70;80.59;;
58303;Laerm;44109;52.398;7.024;2023-05-10T07:46:07;50.24;37.67;59.55;;
58303;Laerm;44109;52.398;7.024;2023-05-10T07:48:36;49.68;37.02;64.82;;
58303;Laerm;44109;52.398;7.024;2023-05-10T07:51:04;51.22;38.97;68.79;;
58303;Laerm;44109;52.398;7.024;2023-05-10T07:53:34;52.29;37.96;67.26;;
58303;Laerm;44109;52.398;7.024;2023-05-10T07:56:22;53.05;37.99;69.21;;
58303;Laerm;44109;52.398;7.024;2023-05-10T07:58:50;53.88;37.40;68.03;;
58303;Laerm;44109;52.398;7.024;2023-05-10T08:01:18;51.63;37.14;66.53;;
58303;Laerm;44109;52.398;7.024;2023-05-10T08:03:46;52.28;39.22;64.30;;
58303;Laerm;44109;52.398;7.024;2023-05-10T08:06:14;53.71;38.79;70.69;;
58303;Laerm;44109;52.398;7.024;2023-05-10T08:08:43;53.91;37.77;72.32;;
58303;Laerm;44109;52.398;7.024;2023-05-10T08:11:11;53.06;38.22;70.69;;
58303;Laerm;44109;52.398;7.024;2023-05-10T08:13:39;51.30;38.23;66.93;;
58303;Laerm;44109;52.398;7.024;2023-05-10T08:16:07;54.65;38.91;70.57;;
58303;Laerm;44109;52.398;7.024;2023-05-10T08:18:34;54.30;38.60;71.09;;
58303;Laerm;44109;52.398;7.024;2023-05-10T08:21:02;49.13;37.04;69.64;;
58303;Laerm;44109;52.398;7.024;2023-05-10T08:23:30;60.60;36.10;94.49;;
58303;Laerm;44109;52.398;7.024;2023-05-10T08:25:59;52.29;38.62;75.02;;
58303;Laerm;44109;52.398;7.024;2023-05-10T08:28:27;54.65;38.38;69.12;;
58303;Laerm;44109;52.398;7.024;2023-05-10T08:30:56;55.02;37.55;70.02;;
58303;Laerm;44109;52.398;7.024;2023-05-10T08:33:23;53.24;38.35;74.02;;
58303;Laerm;44109;52.398;7.024;2023-05-10T08:35:51;53.20;38.47;74.38;;
58303;Laerm;44109;52.398;7.024;2023-05-10T08:38:18;52.48;39.36;74.50;;
58303;Laerm;44109;52.398;7.024;2023-05-10T08:40:49;51.17;37.83;64.65;;
58303;Laerm;44109;52.398;7.024;2023-05-10T08:43:27;53.30;37.69;71.96;;
58303;Laerm;44109;52.398;7.024;2023-05-10T08:45:55;51.44;37.25;69.43;;
58303;Laerm;44109;52.398;7.024;2023-05-10T08:48:24;51.69;37.30;74.26;;
58303;Laerm;44109;52.398;7.024;2023-05-10T08:50:54;50.34;37.89;61.68;;
58303;Laerm;44109;52.398;7.024;2023-05-10T08:53:26;50.27;37.73;60.72;;
58303;Laerm;44109;52.398;7.024;2023-05-10T08:55:56;50.42;37.63;69.78;;
58303;Laerm;44109;52.398;7.024;2023-05-10T08:58:26;53.72;38.64;68.62;;
58303;Laerm;44109;52.398;7.024;2023-05-10T09:00:53;52.95;38.92;65.72;;
58303;Laerm;44109;52.398;7.024;2023-05-10T09:03:21;51.69;38.50;64.00;;
58303;Laerm;44109;52.398;7.024;2023-05-10T09:05:49;50.30;37.33;65.71;;
58303;Laerm;44109;52.398;7.024;2023-05-10T09:08:17;53.63;38.95;71.06;;
58303;Laerm;44109;52.398;7.024;2023-05-10T09:10:48;51.63;38.51;66.59;;
58303;Laerm;44109;52.398;7.024;2023-05-10T09:13:19;53.11;38.28;68.74;;
58303;Laerm;44109;52.398;7.024;2023-05-10T09:15:51;49.85;38.88;63.10;;
58303;Laerm;44109;52.398;7.024;2023-05-10T09:18:19;51.99;38.16;79.34;;
58303;Laerm;44109;52.398;7.024;2023-05-10T09:20:46;50.71;37.50;69.39;;
58303;Laerm;44109;52.398;7.024;2023-05-10T09:23:14;51.30;39.43;63.87;;
58303;Laerm;44109;52.398;7.024;2023-05-10T09:25:42;52.55;40.86;64.48;;
58303;Laerm;44109;52.398;7.024;2023-05-10T09:28:10;53.52;38.66;66.21;;
58303;Laerm;44109;52.398;7.024;2023-05-10T09:30:39;53.68;37.91;66.34;;
58303;Laerm;44109;52.398;7.024;2023-05-10T09:33:08;51.44;38.55;65.89;;
58303;Laerm;44109;52.398;7.024;2023-05-10T09:35:35;51.19;37.64;68.44;;
58303;Laerm;44109;52.398;7.024;2023-05-10T09:38:06;58.65;38.74;84.36;;
58303;Laerm;44109;52.398;7.024;2023-05-10T09:40:34;50.32;37.92;60.61;;
58303;Laerm;44109;52.398;7.024;2023-05-10T09:43:06;49.55;37.54;60.93;;
58303;Laerm;44109;52.398;7.024;2023-05-10T09:45:36;53.45;39.32;66.51;;
58303;Laerm;44109;52.398;7.024;2023-05-10T09:48:05;53.65;39.20;66.77;;
58303;Laerm;44109;52.398;7.024;2023-05-10T09:50:34;55.25;38.98;73.70;;
58303;Laerm;44109;52.398;7.024;2023-05-10T09:53:03;56.46;38.09;76.97;;
58303;Laerm;44109;52.398;7.024;2023-05-10T09:55:40;49.04;38.91;61.41;;
58303;Laerm;44109;52.398;7.024;2023-05-10T09:58:08;51.19;39.03;64.48;;
58303;Laerm;44109;52.398;7.024;2023-05-10T10:00:38;50.25;37.52;61.00;;
58303;Laerm;44109;52.398;7.024;2023-05-10T10:03:12;51.54;40.47;73.89;;
58303;Laerm;44109;52.398;7.024;2023-05-10T10:05:43;54.34;38.30;76.76;;
58303;Laerm;44109;52.398;7.024;2023-05-10T10:08:12;56.73;39.38;80.31;;
58303;Laerm;44109;52.398;7.024;2023-05-10T10:10:40;56.53;40.12;77.60;;
58303;Laerm;44109;52.398;7.024;2023-05-10T10:13:10;58.72;39.92;78.61;;
58303;Laerm;44109;52.398;7.024;2023-05-10T10:15:39;60.31;39.97;79.11;;
58303;Laerm;44109;52.398;7.024;2023-05-10T10:18:07;56.90;40.12;73.51;;
58303;Laerm;44109;52.398;7.024;2023-05-10T10:20:40;50.80;39.36;66.84;;
58303;Laerm;44109;52.398;7.024;2023-05-10T10:23:09;50.63;39.41;61.52;;
58303;Laerm;44109;52.398;7.024;2023-05-10T10:25:38;51.57;39.90;66.17;;
58303;Laerm;44109;52.398;7.024;2023-05-10T10:28:19;50.62;39.71;66.30;;
58303;Laerm;44109;52.398;7.024;2023-05-10T10:30:52;50.02;38.16;75.60;;
58303;Laerm;44109;52.398;7.024;2023-05-10T10:36:33;48.86;37.73;60.91;;
58303;Laerm;44109;52.398;7.024;2023-05-10T10:39:09;52.14;38.44;73.77;;
58303;Laerm;44109;52.398;7.024;2023-05-10T10:41:40;57.88;37.68;77.12;;
58303;Laerm;44109;52.398;7.024;2023-05-10T10:44:37;54.25;37.70;77.18;;
58303;Laerm;44109;52.398;7.024;2023-05-10T10:47:28;53.08;38.56;67.55;;
58303;Laerm;44109;52.398;7.024;2023-05-10T10:50:07;54.78;37.38;72.11;;
58303;Laerm;44109;52.398;7.024;2023-05-10T10:52:36;60.21;37.33;78.15;;
58303;Laerm;44109;52.398;7.024;2023-05-10T10:55:09;61.51;37.96;77.97;;
58303;Laerm;44109;52.398;7.024;2023-05-10T10:57:45;58.86;37.84;80.06;;
58303;Laerm;44109;52.398;7.024;2023-05-10T11:00:28;50.79;37.36;75.18;;
58303;Laerm;44109;52.398;7.024;2023-05-10T11:02:59;61.18;37.06;76.82;;
58303;Laerm;44109;52.398;7.024;2023-05-10T11:05:37;62.83;36.46;78.97;;
58303;Laerm;44109;52.398;7.024;2023-05-10T11:08:19;58.25;35.89;77.04;;
58303;Laerm;44109;52.398;7.024;2023-05-10T11:11:04;62.39;36.29;79.60;;
58303;Laerm;44109;52.398;7.024;2023-05-10T11:13:38;51.26;34.98;70.41;;
58303;Laerm;44109;52.398;7.024;2023-05-10T11:16:13;49.81;36.60;67.11;;
58303;Laerm;44109;52.398;7.024;2023-05-10T11:18:59;60.24;38.04;79.86;;
58303;Laerm;44109;52.398;7.024;2023-05-10T11:21:29;63.16;38.42;79.91;;
58303;Laerm;44109;52.398;7.024;2023-05-10T11:23:59;60.92;38.30;77.73;;
58303;Laerm;44109;52.398;7.024;2023-05-10T11:26:34;60.32;35.75;87.65;;
58303;Laerm;44109;52.398;7.024;2023-05-10T11:29:02;49.63;35.88;66.08;;
58303;Laerm;44109;52.398;7.024;2023-05-10T11:31:31;55.73;36.87;77.39;;
58303;Laerm;44109;52.398;7.024;2023-05-10T11:34:00;56.39;38.07;76.37;;
58303;Laerm;44109;52.398;7.024;2023-05-10T11:36:33;59.26;36.58;78.87;;
58303;Laerm;44109;52.398;7.024;2023-05-10T11:39:00;62.70;39.20;79.62;;
58303;Laerm;44109;52.398;7.024;2023-05-10T11:41:31;50.42;38.03;70.81;;
58303;Laerm;44109;52.398;7.024;2023-05-10T11:43:59;49.10;36.60;63.98;;
58303;Laerm;44109;52.398;7.024;2023-05-10T11:46:28;50.39;36.43;70.17;;
58303;Laerm;44109;52.398;7.024;2023-05-10T11:48:59;50.90;36.50;69.28;;
58303;Laerm;44109;52.398;7.024;2023-05-10T11:51:34;57.21;37.68;83.07;;
58303;Laerm;44109;52.398;7.024;2023-05-10T11:54:07;49.21;37.86;65.23;;
58303;Laerm;44109;52.398;7.024;2023-05-10T11:56:37;52.14;37.59;70.20;;
58303;Laerm;44109;52.398;7.024;2023-05-10T11:59:05;53.02;36.86;68.57;;
58303;Laerm;44109;52.398;7.024;2023-05-10T12:01:33;58.04;36.87;76.47;;
58303;Laerm;44109;52.398;7.024;2023-05-10T12:04:01;55.31;36.19;76.24;;
58303;Laerm;44109;52.398;7.024;2023-05-10T12:06:32;50.95;37.15;82.21;;
58303;Laerm;44109;52.398;7.024;2023-05-10T12:09:06;48.26;36.47;60.68;;
58303;Laerm;44109;52.398;7.024;2023-05-10T12:11:40;49.67;36.93;66.83;;
58303;Laerm;44109;52.398;7.024;2023-05-10T12:14:08;49.67;37.35;65.77;;
58303;Laerm;44109;52.398;7.024;2023-05-10T12:16:36;51.26;37.20;67.77;;
58303;Laerm;44109;52.398;7.024;2023-05-10T12:19:04;51.33;36.93;68.45;;
58303;Laerm;44109;52.398;7.024;2023-05-10T12:21:32;51.61;38.82;68.33;;
58303;Laerm;44109;52.398;7.024;2023-05-10T12:24:03;53.40;38.83;68.84;;
58303;Laerm;44109;52.398;7.024;2023-05-10T12:26:32;52.09;36.68;72.09;;
58303;Laerm;44109;52.398;7.024;2023-05-10T12:29:15;48.61;36.52;62.55;;
58303;Laerm;44109;52.398;7.024;2023-05-10T12:31:51;48.25;36.60;63.43;;
58303;Laerm;44109;52.398;7.024;2023-05-10T12:34:26;49.23;38.09;64.36;;
58303;Laerm;44109;52.398;7.024;2023-05-10T12:36:55;49.72;36.58;64.60;;
58303;Laerm;44109;52.398;7.024;2023-05-10T12:39:23;63.79;35.46;82.15;;
58303;Laerm;44109;52.398;7.024;2023-05-10T12:41:51;66.49;36.34;83.24;;
58303;Laerm;44109;52.398;7.024;2023-05-10T12:44:20;65.96;36.08;84.26;;
58303;Laerm;44109;52.398;7.024;2023-05-10T12:46:48;65.67;37.08;83.90;;
58303;Laerm;44109;52.398;7.024;2023-05-10T12:49:15;62.30;37.38;82.88;;
58303;Laerm;44109;52.398;7.024;2023-05-10T12:51:45;61.94;37.95;81.65;;
58303;Laerm;44109;52.398;7.024;2023-05-10T12:54:15;57.66;36.83;78.89;;
58303;Laerm;44109;52.398;7.024;2023-05-10T12:56:43;61.64;38.67;79.28;;
58303;Laerm;44109;52.398;7.024;2023-05-10T12:59:11;61.90;40.93;79.82;;
58303;Laerm;44109;52.398;7.024;2023-05-10T13:01:40;62.52;42.21;78.73;;
58303;Laerm;44109;52.398;7.024;2023-05-10T13:04:07;60.22;41.77;80.74;;
58303;Laerm;44109;52.398;7.024;2023-05-10T13:06:35;50.71;41.86;64.70;;
58303;Laerm;44109;52.398;7.024;2023-05-10T13:09:02;54.97;41.55;76.29;;
58303;Laerm;44109;52.398;7.024;2023-05-10T13:11:30;54.42;42.10;78.01;;
58303;Laerm;44109;52.398;7.024;2023-05-10T13:13:59;58.53;41.97;81.77;;
58303;Laerm;44109;52.398;7.024;2023-05-10T13:16:26;59.73;37.00;79.49;;
58303;Laerm;44109;52.398;7.024;2023-05-10T13:18:55;60.69;37.22;80.10;;
58303;Laerm;44109;52.398;7.024;2023-05-10T13:21:23;62.80;35.84;81.32;;
58303;Laerm;44109;52.398;7.024;2023-05-10T13:23:51;50.12;34.86;65.19;;
58303;Laerm;44109;52.398;7.024;2023-05-10T13:26:19;49.52;37.37;66.73;;
58303;Laerm;44109;52.398;7.024;2023-05-10T13:28:47;49.88;35.55;67.34;;
58303;Laerm;44109;52.398;7.024;2023-05-10T13:31:15;53.86;36.92;71.98;;
58303;Laerm;44109;52.398;7.024;2023-05-10T13:33:43;50.58;36.77;64.46;;
58303;Laerm;44109;52.398;7.024;2023-05-10T13:36:12;53.83;36.26;70.59;;
58303;Laerm;44109;52.398;7.024;2023-05-10T13:38:40;49.34;35.84;66.27;;
58303;Laerm;44109;52.398;7.024;2023-05-10T13:41:07;57.36;35.60;79.09;;
58303;Laerm;44109;52.398;7.024;2023-05-10T13:43:35;58.39;36.09;79.04;;
58303;Laerm;44109;52.398;7.024;2023-05-10T13:46:03;48.71;34.58;63.05;;
58303;Laerm;44109;52.398;7.024;2023-05-10T13:48:31;49.64;36.62;60.71;;
58303;Laerm;44109;52.398;7.024;2023-05-10T13:50:58;49.44;36.87;64.62;;
58303;Laerm;44109;52.398;7.024;2023-05-10T13:53:27;49.37;37.01;66.19;;
58303;Laerm;44109;52.398;7.024;2023-05-10T13:55:55;48.59;37.16;60.63;;
58303;Laerm;44109;52.398;7.024;2023-05-10T13:58:23;48.07;35.71;60.47;;
58303;Laerm;44109;52.398;7.024;2023-05-10T14:00:50;51.08;35.43;62.31;;
58303;Laerm;44109;52.398;7.024;2023-05-10T14:03:18;53.08;37.16;62.14;;